Terminal Aerodrome Forecast
Issued by NWS Pittsburgh, PA

Current Version | Previous Version | Graphics & Text | Print | Product List | Glossary On
Versions: 1 2 3 4 5 6 7 8 9 10 11 12 13 14 15 16 17 18 19 20 21 22 23 24 25 26 27 28 29
387
FTUS41 KPBZ 240520
TAFPIT
TAF
KPIT 240520Z 2406/2512 15006KT P6SM OVC200
     FM240900 16007KT P6SM VCSH BKN060 WS020/20040KT
     FM241300 20008G18KT P6SM BKN100
     FM250900 21006KT P6SM OVC025=

USA.gov is the U.S. government's official web portal to all federal, state and local government web resources and services.